Observations for Trim Market St
| Time | AQI | Temp °C | Hum % | Pres Pa | CO μg/m³ | H₂S μg/m³ | NO μg/m³ | NO₂ μg/m³ | O₃ μg/m³ | SO₂ μg/m³ | PM1 μg/m³ | PM2.5 μg/m³ | PM10 μg/m³ |
|---|---|---|---|---|---|---|---|---|---|---|---|---|---|
| Friday 10 July 2026 | |||||||||||||
| 17:56 | 1 | 31.4 | 39 | 65,299 | 0 | 26.3 | 0 | 15.52 | 28.55 | 0.07 | 2.85 | 5.56 | 5.91 |
| 17:55 | 1 | 31.5 | 39 | 65,350 | 0 | 23.9 | 0 | 14.43 | 24.3 | 0 | 2.85 | 6.1 | 6.72 |
| 17:54 | 1 | 31.6 | 39 | 65,445 | 0 | 23.09 | 0 | 17.31 | 25.62 | 0 | 2.14 | 4.52 | 4.97 |
| 17:53 | 1 | 31.7 | 39 | 65,477 | 0 | 22.41 | 0 | 13.8 | 21.76 | 0 | 2.14 | 5.05 | 5.09 |
| 17:52 | 1 | 31.7 | 39 | 65,509 | 0 | 25.05 | 0 | 21.11 | 18.79 | 0 | 2.14 | 5.05 | 5.9 |
| 17:51 | 1 | 31.8 | 39 | 65,552 | 0 | 22.68 | 0 | 27.7 | 19.25 | 0 | 4.99 | 8.78 | 13.22 |
| 17:50 | 1 | 31.9 | 38 | 65,609 | 0 | 20.71 | 0 | 11.99 | 16.56 | 0.69 | 1.43 | 5.07 | 5.08 |
| 17:49 | 1 | 32 | 38 | 65,615 | 0 | 24.12 | 0 | 14.86 | 20.32 | 0.34 | 2.14 | 5.07 | 5.08 |
| 17:48 | 1 | 32.1 | 38 | 65,621 | 0 | 26.37 | 0 | 14.35 | 30.13 | 0.91 | 3.56 | 6.14 | 6.71 |
| 17:47 | 1 | 32.2 | 38 | 65,666 | 0 | 25.8 | 0 | 14.44 | 26.52 | 1.02 | 1.43 | 4.02 | 4.42 |
| 17:46 | 1 | 32.2 | 38 | 65,723 | 0 | 25.16 | 0 | 14.15 | 22.22 | 1.4 | 2.14 | 5.09 | 5.6 |
| 17:45 | 1 | 32.3 | 38 | 65,728 | 0 | 24.56 | 0 | 16.04 | 17.16 | 0.28 | 2.14 | 5.09 | 6.71 |
| 17:44 | 1 | 32.4 | 38 | 65,740 | 0 | 29.66 | 0 | 23.41 | 15.79 | 0.2 | 1.43 | 4.56 | 5.02 |
| 17:43 | 1 | 32.5 | 38 | 65,778 | 0 | 29.01 | 0 | 19.09 | 16.53 | 1.16 | 2.14 | 5.1 | 5.61 |
| 17:40 | 1 | 32.7 | 37 | 65,878 | 0 | 31.35 | 0 | 17.7 | 24.62 | 1.8 | 2.85 | 5.66 | 5.88 |
| 17:37 | 1 | 33 | 37 | 65,951 | 0 | 30.79 | 0 | 14.56 | 23.65 | 2.32 | 2.85 | 5.14 | 5.66 |
| 17:34 | 1 | 33.3 | 37 | 66,037 | 0 | 39.05 | 0 | 25.43 | 14.83 | 2.74 | 3.56 | 6.23 | 6.7 |
| 17:31 | 1 | 33.7 | 36 | 66,135 | 0 | 36.74 | 0 | 18.99 | 24.19 | 2.79 | 2.85 | 5.19 | 5.71 |
| 17:25 | 1 | 34.3 | 35 | 66,299 | 0 | 36.41 | 0 | 16.26 | 24.27 | 3.56 | 2.14 | 4.71 | 5.18 |
| 17:24 | 1 | 34.5 | 35 | 66,331 | 0 | 36.43 | 0 | 17.42 | 25.31 | 3.68 | 2.14 | 4.72 | 5.19 |